Time;durP1;ratioP1;P1;durP2;ratioP2;P2;SDS_P1;SDS_P2;PMS_P1;PMS_P2;Temp;Humidity;BMP_temperature;BMP_pressure;BME280_temperature;BME280_humidity;BME280_pressure;Samples;Min_cycle;Max_cycle;Signal;HPM_P1;HPM_P2
2022/01/04 00:01:09;;;;;;;;;0.00;0.00;;;;;;;;4983737;28;9449;-85
2022/01/04 00:03:36;;;;;;;;;1.00;1.00;;;;;;;;4984717;28;9559;-89
2022/01/04 00:06:04;;;;;;;;;2.75;2.75;;;;;;;;4987424;28;10299;-78
2022/01/04 00:08:33;;;;;;;;;2.50;1.00;;;;;;;;4994289;28;9707;-79
2022/01/04 00:11:08;;;;;;;;;0.00;0.00;;;;;;;;4993017;28;9724;-85
2022/01/04 00:13:36;;;;;;;;;2.00;2.00;;;;;;;;4985461;28;9530;-82
2022/01/04 00:16:05;;;;;;;;;3.00;2.00;;;;;;;;4982718;28;9776;-89
2022/01/04 00:18:33;;;;;;;;;2.00;2.00;;;;;;;;4986352;28;10464;-80
2022/01/04 00:21:00;;;;;;;;;5.50;4.00;;;;;;;;4989618;28;9841;-81
2022/01/04 00:23:27;;;;;;;;;2.00;2.00;;;;;;;;4986407;28;10078;-88
2022/01/04 00:25:56;;;;;;;;;4.25;4.25;;;;;;;;4982813;28;10008;-87
2022/01/04 00:28:23;;;;;;;;;3.50;3.50;;;;;;;;4985446;28;10164;-83
2022/01/04 00:30:51;;;;;;;;;5.75;5.75;;;;;;;;4984036;28;9927;-90
2022/01/04 00:33:18;;;;;;;;;6.50;5.50;;;;;;;;4984192;28;10173;-85
2022/01/04 00:35:46;;;;;;;;;3.25;2.50;;;;;;;;4985597;28;9909;-77
2022/01/04 00:38:14;;;;;;;;;6.00;3.00;;;;;;;;4982877;28;9918;-81
2022/01/04 00:40:41;;;;;;;;;6.00;3.50;;;;;;;;4988709;28;10011;-83
2022/01/04 00:43:10;;;;;;;;;7.00;4.25;;;;;;;;4974017;28;9978;-85
2022/01/04 00:45:37;;;;;;;;;2.00;2.00;;;;;;;;4979886;28;9936;-78
2022/01/04 00:50:50;;;;;;;;;6.00;5.00;;;;;;;;4980607;28;9854;-92
2022/01/04 00:53:18;;;;;;;;;4.25;4.25;;;;;;;;4985050;28;10089;-86
2022/01/04 00:55:45;;;;;;;;;2.50;2.50;;;;;;;;4979474;28;9967;-78
2022/01/04 00:58:14;;;;;;;;;4.50;2.00;;;;;;;;4986208;28;9967;-78
2022/01/04 01:00:42;;;;;;;;;4.00;2.00;;;;;;;;4980446;28;10004;-85
2022/01/04 01:03:10;;;;;;;;;1.50;1.50;;;;;;;;4984830;28;10067;-79
2022/01/04 01:05:38;;;;;;;;;1.00;1.00;;;;;;;;4983536;28;10209;-86
2022/01/04 01:08:06;;;;;;;;;2.00;2.00;;;;;;;;4985707;28;10015;-82
2022/01/04 01:13:19;;;;;;;;;1.00;1.00;;;;;;;;4979785;28;9783;-84
2022/01/04 01:15:47;;;;;;;;;0.00;0.00;;;;;;;;4983356;28;9796;-83
2022/01/04 01:18:19;;;;;;;;;0.50;0.50;;;;;;;;4982825;28;9810;-85
2022/01/04 01:20:48;;;;;;;;;1.00;1.00;;;;;;;;4984522;28;9793;-82
2022/01/04 01:23:16;;;;;;;;;0.00;0.00;;;;;;;;4984293;28;9793;-87
2022/01/04 01:25:43;;;;;;;;;0.00;0.00;;;;;;;;4983465;28;9795;-89
2022/01/04 01:28:11;;;;;;;;;0.00;0.00;;;;;;;;4984835;28;9805;-84
2022/01/04 01:30:41;;;;;;;;;0.00;0.00;;;;;;;;4982253;28;9674;-85
2022/01/04 01:33:08;;;;;;;;;0.00;0.00;;;;;;;;4984352;28;10023;-79
2022/01/04 01:35:37;;;;;;;;;0.00;0.00;;;;;;;;4984091;28;9950;-81
2022/01/04 01:38:05;;;;;;;;;0.00;0.00;;;;;;;;4983906;28;9971;-82
2022/01/04 01:40:33;;;;;;;;;0.75;0.00;;;;;;;;4983623;28;9883;-91
2022/01/04 01:43:00;;;;;;;;;0.00;0.00;;;;;;;;4983199;28;9844;-83
2022/01/04 01:45:28;;;;;;;;;0.00;0.00;;;;;;;;4980517;28;9898;-89
2022/01/04 01:47:57;;;;;;;;;0.00;0.00;;;;;;;;4983323;28;9813;-87
2022/01/04 01:50:24;;;;;;;;;0.00;0.00;;;;;;;;4967235;28;9812;-84
2022/01/04 01:52:53;;;;;;;;;0.00;0.00;;;;;;;;4980909;28;10016;-87
2022/01/04 01:55:23;;;;;;;;;0.00;0.00;;;;;;;;4983939;28;9787;-86
2022/01/04 01:57:50;;;;;;;;;0.00;0.00;;;;;;;;4984192;28;9788;-81
2022/01/04 02:00:20;;;;;;;;;1.00;0.00;;;;;;;;4977016;28;9733;-83
2022/01/04 02:02:48;;;;;;;;;0.00;0.00;;;;;;;;4979542;28;10011;-85
2022/01/04 02:05:17;;;;;;;;;0.00;0.00;;;;;;;;4981826;28;9965;-79
2022/01/04 02:07:45;;;;;;;;;0.00;0.00;;;;;;;;4981707;28;9780;-80
2022/01/04 02:10:13;;;;;;;;;0.00;0.00;;;;;;;;4991305;28;9878;-81
2022/01/04 02:12:44;;;;;;;;;0.00;0.00;;;;;;;;4982517;28;9820;-82
2022/01/04 02:15:26;;;;;;;;;0.00;0.00;;;;;;;;4985284;28;9905;-83
2022/01/04 02:18:18;;;;;;;;;0.00;0.00;;;;;;;;4984107;28;9807;-81
2022/01/04 02:20:47;;;;;;;;;0.00;0.00;;;;;;;;4982147;28;9974;-81
2022/01/04 02:23:14;;;;;;;;;0.00;0.00;;;;;;;;4989334;28;10018;-86
2022/01/04 02:25:42;;;;;;;;;0.00;0.00;;;;;;;;4984792;28;9811;-83
2022/01/04 02:28:09;;;;;;;;;0.00;0.00;;;;;;;;4986385;28;10053;-81
2022/01/04 02:30:36;;;;;;;;;0.00;0.00;;;;;;;;4985257;28;9807;-84
2022/01/04 02:33:04;;;;;;;;;0.00;0.00;;;;;;;;4985397;28;9787;-83
2022/01/04 02:35:32;;;;;;;;;0.00;0.00;;;;;;;;4987632;28;9880;-89
2022/01/04 02:38:02;;;;;;;;;0.75;0.50;;;;;;;;4987597;28;9992;-92
2022/01/04 02:40:30;;;;;;;;;0.00;0.00;;;;;;;;4987835;28;9986;-79
2022/01/04 02:42:57;;;;;;;;;0.00;0.00;;;;;;;;4981488;28;10052;-86
2022/01/04 02:45:25;;;;;;;;;0.00;0.00;;;;;;;;4985729;28;10514;-82
2022/01/04 02:47:52;;;;;;;;;1.25;0.00;;;;;;;;4985695;28;10008;-85
2022/01/04 02:50:20;;;;;;;;;0.00;0.00;;;;;;;;4984362;28;9962;-90
2022/01/04 02:52:48;;;;;;;;;0.50;0.00;;;;;;;;4983742;28;9976;-82
2022/01/04 02:55:18;;;;;;;;;0.00;0.00;;;;;;;;4987523;28;9869;-81
2022/01/04 02:57:46;;;;;;;;;0.00;0.00;;;;;;;;4981928;28;9826;-87
2022/01/04 03:00:16;;;;;;;;;0.00;0.00;;;;;;;;4985859;28;9864;-83
2022/01/04 03:02:44;;;;;;;;;0.00;0.00;;;;;;;;4981550;28;10933;-82
2022/01/04 03:05:11;;;;;;;;;0.00;0.00;;;;;;;;4986564;28;10071;-85
2022/01/04 03:07:38;;;;;;;;;0.00;0.00;;;;;;;;4988510;28;9856;-80
2022/01/04 03:10:07;;;;;;;;;0.00;0.00;;;;;;;;4994905;28;9821;-80
2022/01/04 03:12:38;;;;;;;;;0.00;0.00;;;;;;;;4997089;28;10061;-77
2022/01/04 03:15:07;;;;;;;;;0.00;0.00;;;;;;;;4986307;28;10025;-90
2022/01/04 03:17:34;;;;;;;;;0.00;0.00;;;;;;;;4986410;28;9959;-86
2022/01/04 03:20:02;;;;;;;;;0.00;0.00;;;;;;;;4997038;28;9979;-78
2022/01/04 03:22:29;;;;;;;;;0.00;0.00;;;;;;;;4986851;28;9795;-84
2022/01/04 03:24:56;;;;;;;;;0.00;0.00;;;;;;;;4985805;28;9954;-79
2022/01/04 03:27:24;;;;;;;;;0.00;0.00;;;;;;;;4985391;28;9885;-84
2022/01/04 03:29:52;;;;;;;;;0.00;0.00;;;;;;;;4985850;28;10487;-82
2022/01/04 03:32:20;;;;;;;;;0.00;0.00;;;;;;;;4985206;28;9815;-80
2022/01/04 03:34:47;;;;;;;;;0.00;0.00;;;;;;;;4987192;28;9891;-89
2022/01/04 03:37:14;;;;;;;;;0.00;0.00;;;;;;;;4985623;28;9922;-85
2022/01/04 03:39:42;;;;;;;;;0.00;0.00;;;;;;;;4986439;28;9851;-78
2022/01/04 03:42:10;;;;;;;;;0.75;0.75;;;;;;;;4983504;28;10828;-82
2022/01/04 03:44:37;;;;;;;;;1.50;1.50;;;;;;;;4986147;28;10135;-80
2022/01/04 03:47:07;;;;;;;;;1.00;1.00;;;;;;;;4983763;28;10059;-85
2022/01/04 03:49:34;;;;;;;;;1.00;1.00;;;;;;;;4986262;28;9948;-79
2022/01/04 03:52:02;;;;;;;;;1.00;1.00;;;;;;;;4985617;28;10041;-78
2022/01/04 03:54:29;;;;;;;;;1.50;0.50;;;;;;;;4993347;28;10144;-84
2022/01/04 03:56:56;;;;;;;;;0.50;0.50;;;;;;;;4980186;28;11260;-90
2022/01/04 03:59:23;;;;;;;;;0.00;0.00;;;;;;;;4983676;28;10052;-83
2022/01/04 04:01:51;;;;;;;;;0.00;0.00;;;;;;;;4985080;28;9912;-82
2022/01/04 04:04:19;;;;;;;;;0.25;0.25;;;;;;;;4981239;28;9891;-80
2022/01/04 04:06:47;;;;;;;;;1.00;1.00;;;;;;;;4985368;28;9944;-79
2022/01/04 04:09:14;;;;;;;;;2.00;1.00;;;;;;;;4984221;28;9947;-79
2022/01/04 04:11:42;;;;;;;;;0.00;0.00;;;;;;;;4984972;28;10006;-81
2022/01/04 04:14:09;;;;;;;;;0.00;0.00;;;;;;;;4985961;28;9850;-85
2022/01/04 04:16:36;;;;;;;;;0.00;0.00;;;;;;;;4988957;28;9962;-82
2022/01/04 04:19:03;;;;;;;;;0.50;0.50;;;;;;;;4985819;28;9871;-81
2022/01/04 04:21:33;;;;;;;;;0.25;0.25;;;;;;;;4993890;28;9781;-87
2022/01/04 04:24:00;;;;;;;;;0.00;0.00;;;;;;;;4982837;28;9780;-83
2022/01/04 04:26:27;;;;;;;;;0.00;0.00;;;;;;;;4984087;28;9785;-79
2022/01/04 04:28:55;;;;;;;;;0.50;0.00;;;;;;;;4984983;28;11279;-83
2022/01/04 04:31:22;;;;;;;;;0.00;0.00;;;;;;;;4983915;28;9646;-84
2022/01/04 04:33:49;;;;;;;;;0.00;0.00;;;;;;;;4984224;28;9840;-86
2022/01/04 04:36:16;;;;;;;;;0.50;0.00;;;;;;;;4982426;28;9792;-82
2022/01/04 04:38:45;;;;;;;;;0.00;0.00;;;;;;;;4987684;28;9797;-86
2022/01/04 04:41:13;;;;;;;;;1.00;1.00;;;;;;;;4989443;28;9839;-83
2022/01/04 04:43:40;;;;;;;;;0.75;0.00;;;;;;;;4980100;28;10036;-79
2022/01/04 04:46:07;;;;;;;;;2.25;2.25;;;;;;;;4984289;28;9854;-81
2022/01/04 04:48:34;;;;;;;;;1.00;1.00;;;;;;;;4984424;28;9867;-84
2022/01/04 04:51:02;;;;;;;;;1.00;1.00;;;;;;;;4983658;28;10018;-83
2022/01/04 04:53:29;;;;;;;;;2.00;2.00;;;;;;;;4985021;28;9925;-86
2022/01/04 04:55:58;;;;;;;;;2.00;2.00;;;;;;;;4984330;28;10105;-80
2022/01/04 04:58:25;;;;;;;;;2.75;2.75;;;;;;;;4985485;28;10082;-77
2022/01/04 05:00:52;;;;;;;;;1.00;1.00;;;;;;;;4981903;28;10061;-81
2022/01/04 05:03:19;;;;;;;;;1.00;1.00;;;;;;;;4983079;28;9795;-88
2022/01/04 05:05:47;;;;;;;;;2.00;2.00;;;;;;;;4985449;28;9794;-87
2022/01/04 05:08:15;;;;;;;;;2.75;2.75;;;;;;;;4984294;28;9732;-83
2022/01/04 05:10:44;;;;;;;;;1.00;1.00;;;;;;;;4983339;28;9986;-84
2022/01/04 05:13:13;;;;;;;;;1.00;1.00;;;;;;;;4988713;28;9733;-92
2022/01/04 05:15:41;;;;;;;;;1.00;1.00;;;;;;;;4984465;28;9831;-78
2022/01/04 05:18:09;;;;;;;;;3.00;3.00;;;;;;;;4983749;28;10745;-81
2022/01/04 05:20:37;;;;;;;;;5.75;2.00;;;;;;;;4982551;28;9783;-79
2022/01/04 05:23:04;;;;;;;;;3.00;3.00;;;;;;;;4982565;28;9763;-79
2022/01/04 05:25:32;;;;;;;;;2.25;2.25;;;;;;;;4983658;28;9739;-85
2022/01/04 05:27:59;;;;;;;;;4.50;2.75;;;;;;;;4980292;28;9749;-84
2022/01/04 05:30:28;;;;;;;;;1.00;1.00;;;;;;;;4982968;28;9707;-89
2022/01/04 05:32:56;;;;;;;;;2.00;2.00;;;;;;;;4981237;28;9582;-87
2022/01/04 05:35:26;;;;;;;;;3.00;2.25;;;;;;;;4981972;28;9799;-79
2022/01/04 05:37:54;;;;;;;;;3.00;3.00;;;;;;;;4982611;28;9736;-80
2022/01/04 05:40:22;;;;;;;;;3.00;2.75;;;;;;;;4981998;28;9789;-89
2022/01/04 05:42:49;;;;;;;;;2.25;2.25;;;;;;;;4979941;28;9647;-85
2022/01/04 05:45:17;;;;;;;;;1.50;1.50;;;;;;;;4980170;28;9784;-88
2022/01/04 05:47:46;;;;;;;;;2.00;1.00;;;;;;;;4982053;28;9766;-83
2022/01/04 05:50:13;;;;;;;;;2.00;2.00;;;;;;;;4982531;28;9577;-89
2022/01/04 05:52:41;;;;;;;;;2.00;2.00;;;;;;;;4980195;28;9744;-78
2022/01/04 05:55:09;;;;;;;;;2.75;2.75;;;;;;;;4982225;28;9788;-83
2022/01/04 05:57:37;;;;;;;;;3.00;2.00;;;;;;;;4979210;28;9721;-82
2022/01/04 06:00:06;;;;;;;;;1.00;1.00;;;;;;;;4986494;28;9722;-81
2022/01/04 06:02:33;;;;;;;;;1.00;1.00;;;;;;;;4987888;28;9689;-87
2022/01/04 06:05:04;;;;;;;;;2.00;2.00;;;;;;;;4985542;28;9877;-84
2022/01/04 06:07:31;;;;;;;;;1.00;1.00;;;;;;;;4982905;28;9906;-82
2022/01/04 06:09:58;;;;;;;;;1.00;1.00;;;;;;;;4984329;28;9736;-82
2022/01/04 06:15:12;;;;;;;;;1.00;1.00;;;;;;;;4993540;28;10553;-83
2022/01/04 06:17:42;;;;;;;;;0.25;0.25;;;;;;;;4989081;28;10308;-81
2022/01/04 06:20:13;;;;;;;;;1.00;1.00;;;;;;;;4985395;28;9599;-83
2022/01/04 06:22:41;;;;;;;;;0.00;0.00;;;;;;;;4984374;28;9578;-83
2022/01/04 06:25:11;;;;;;;;;0.00;0.00;;;;;;;;4985674;28;9678;-76
2022/01/04 06:27:38;;;;;;;;;0.50;0.50;;;;;;;;4980573;28;9624;-75
2022/01/04 06:30:07;;;;;;;;;2.00;0.00;;;;;;;;4986081;28;9632;-80
2022/01/04 06:32:35;;;;;;;;;0.50;0.50;;;;;;;;4984223;28;9564;-79
2022/01/04 06:35:03;;;;;;;;;0.00;0.00;;;;;;;;4985189;28;9493;-79
2022/01/04 06:37:32;;;;;;;;;0.00;0.00;;;;;;;;4984588;28;9577;-77
2022/01/04 06:39:59;;;;;;;;;1.75;1.75;;;;;;;;4986613;28;9510;-79
2022/01/04 06:42:27;;;;;;;;;2.00;2.00;;;;;;;;4981546;28;9777;-78
2022/01/04 06:44:55;;;;;;;;;3.00;1.00;;;;;;;;4982553;28;9728;-76
2022/01/04 06:47:22;;;;;;;;;7.00;5.50;;;;;;;;4985673;28;9798;-77
2022/01/04 06:49:50;;;;;;;;;3.75;3.50;;;;;;;;4986654;28;9794;-80
2022/01/04 06:52:17;;;;;;;;;5.75;5.75;;;;;;;;4985203;28;10545;-77
2022/01/04 06:54:46;;;;;;;;;5.00;5.00;;;;;;;;4985949;28;9926;-77
2022/01/04 06:57:13;;;;;;;;;8.00;7.00;;;;;;;;4986302;28;9904;-75
2022/01/04 06:59:40;;;;;;;;;6.00;6.00;;;;;;;;4983042;28;9827;-81
2022/01/04 07:02:08;;;;;;;;;2.00;2.00;;;;;;;;4982546;28;9798;-74
2022/01/04 07:04:35;;;;;;;;;2.25;2.25;;;;;;;;4982738;28;9798;-76
2022/01/04 07:07:02;;;;;;;;;2.00;2.00;;;;;;;;4985657;28;9723;-79
2022/01/04 07:09:30;;;;;;;;;3.00;1.50;;;;;;;;4987517;28;9660;-79
2022/01/04 07:11:59;;;;;;;;;2.00;2.00;;;;;;;;4984678;28;9807;-75
2022/01/04 07:14:26;;;;;;;;;3.00;3.00;;;;;;;;4986983;28;9831;-77
2022/01/04 07:16:53;;;;;;;;;3.00;3.00;;;;;;;;4977504;28;9775;-80
2022/01/04 07:19:22;;;;;;;;;3.00;3.00;;;;;;;;4986282;28;10571;-80
2022/01/04 07:21:49;;;;;;;;;3.75;3.75;;;;;;;;4983849;28;9951;-79
2022/01/04 07:24:17;;;;;;;;;3.75;3.75;;;;;;;;4980354;28;9814;-75
2022/01/04 07:26:44;;;;;;;;;5.00;3.75;;;;;;;;4979247;28;10053;-74
2022/01/04 07:29:13;;;;;;;;;3.00;3.00;;;;;;;;4984562;28;10058;-72
2022/01/04 07:31:40;;;;;;;;;8.75;7.00;;;;;;;;4983262;28;10017;-74
2022/01/04 07:34:07;;;;;;;;;8.00;8.00;;;;;;;;4983127;28;10112;-73
2022/01/04 07:36:35;;;;;;;;;7.00;7.00;;;;;;;;4986034;28;10124;-74
2022/01/04 07:39:02;;;;;;;;;6.25;6.25;;;;;;;;4983114;28;9972;-74
2022/01/04 07:41:29;;;;;;;;;9.00;9.00;;;;;;;;4983172;28;10069;-74
2022/01/04 07:43:57;;;;;;;;;11.00;8.25;;;;;;;;4988139;28;10420;-74
2022/01/04 07:46:26;;;;;;;;;8.25;8.25;;;;;;;;4983339;28;10187;-72
2022/01/04 07:48:53;;;;;;;;;3.75;3.75;;;;;;;;4986683;28;10129;-74
2022/01/04 07:51:21;;;;;;;;;6.00;4.50;;;;;;;;4984374;28;10065;-73
2022/01/04 07:53:48;;;;;;;;;5.00;5.00;;;;;;;;4984387;28;10083;-74
2022/01/04 07:56:15;;;;;;;;;3.00;3.00;;;;;;;;4985312;28;10120;-74
2022/01/04 07:58:43;;;;;;;;;6.00;6.00;;;;;;;;4983794;28;10158;-74
2022/01/04 08:01:10;;;;;;;;;5.50;5.50;;;;;;;;4984244;28;10001;-74
2022/01/04 08:03:39;;;;;;;;;6.00;6.00;;;;;;;;4987941;28;10066;-73
2022/01/04 08:06:06;;;;;;;;;9.00;7.00;;;;;;;;4984557;28;10066;-75
2022/01/04 08:08:33;;;;;;;;;8.25;6.50;;;;;;;;4984590;28;10132;-75
2022/01/04 08:11:00;;;;;;;;;8.00;6.00;;;;;;;;4985707;28;10041;-75
2022/01/04 08:13:30;;;;;;;;;13.50;7.75;;;;;;;;4982393;28;10055;-75
2022/01/04 08:15:57;;;;;;;;;11.50;9.75;;;;;;;;4987047;28;10220;-74
2022/01/04 08:18:24;;;;;;;;;9.25;7.50;;;;;;;;4985853;28;10028;-74
2022/01/04 08:20:57;;;;;;;;;6.00;6.00;;;;;;;;4983718;28;10822;-74
2022/01/04 08:23:25;;;;;;;;;5.25;5.25;;;;;;;;4981004;28;10144;-75
2022/01/04 08:25:53;;;;;;;;;5.75;5.75;;;;;;;;4983598;28;10063;-74
2022/01/04 08:28:20;;;;;;;;;6.25;5.50;;;;;;;;4981025;28;10960;-74
2022/01/04 08:30:47;;;;;;;;;6.75;6.00;;;;;;;;4979246;28;10197;-74
2022/01/04 08:33:15;;;;;;;;;8.25;7.00;;;;;;;;4982409;28;10211;-73
2022/01/04 08:35:44;;;;;;;;;6.00;6.00;;;;;;;;4985113;28;10279;-74
2022/01/04 08:38:12;;;;;;;;;4.25;4.25;;;;;;;;4979017;28;10406;-73
2022/01/04 08:40:40;;;;;;;;;3.75;2.00;;;;;;;;4982964;28;10070;-74
2022/01/04 08:43:07;;;;;;;;;1.75;1.00;;;;;;;;4981760;28;10811;-75
2022/01/04 08:45:35;;;;;;;;;2.25;2.25;;;;;;;;4980350;28;9870;-77
2022/01/04 08:48:04;;;;;;;;;3.00;3.00;;;;;;;;4980180;28;10735;-74
2022/01/04 08:50:31;;;;;;;;;5.00;3.50;;;;;;;;4983434;28;10135;-74
2022/01/04 08:52:59;;;;;;;;;5.25;5.25;;;;;;;;4985003;28;9978;-73
2022/01/04 08:55:28;;;;;;;;;4.25;4.25;;;;;;;;4983782;28;10233;-74
2022/01/04 08:58:14;;;;;;;;;5.00;5.00;;;;;;;;4983411;28;10195;-74
2022/01/04 09:00:43;;;;;;;;;5.00;5.00;;;;;;;;4981756;28;11035;-74
2022/01/04 09:03:11;;;;;;;;;6.00;4.50;;;;;;;;4983456;28;10222;-74
2022/01/04 09:05:38;;;;;;;;;5.75;5.75;;;;;;;;4980596;28;10278;-74
2022/01/04 09:08:06;;;;;;;;;4.50;2.00;;;;;;;;4981701;28;10169;-74
2022/01/04 09:10:35;;;;;;;;;6.25;6.25;;;;;;;;4982793;28;10183;-77
2022/01/04 09:13:08;;;;;;;;;9.50;7.50;;;;;;;;4980523;28;10201;-74
2022/01/04 09:15:56;;;;;;;;;6.00;6.00;;;;;;;;4981747;28;10356;-74
2022/01/04 09:21:09;;;;;;;;;10.00;10.00;;;;;;;;4984186;28;10583;-75
2022/01/04 09:23:36;;;;;;;;;7.75;7.75;;;;;;;;4985031;28;10596;-74
2022/01/04 09:26:05;;;;;;;;;7.00;7.00;;;;;;;;4983792;28;10528;-75
2022/01/04 09:28:32;;;;;;;;;7.50;7.00;;;;;;;;4985389;28;11317;-74
2022/01/04 09:31:00;;;;;;;;;15.75;11.00;;;;;;;;4977857;28;10520;-75
2022/01/04 09:33:28;;;;;;;;;13.50;10.75;;;;;;;;4981359;28;10668;-75
2022/01/04 09:35:56;;;;;;;;;13.00;8.50;;;;;;;;4985847;28;10761;-74
2022/01/04 09:38:23;;;;;;;;;15.00;15.00;;;;;;;;4986863;28;10606;-75
2022/01/04 09:40:51;;;;;;;;;16.00;15.25;;;;;;;;4986637;28;10807;-75
2022/01/04 09:43:20;;;;;;;;;10.50;10.50;;;;;;;;4986117;28;10713;-74
2022/01/04 09:45:48;;;;;;;;;8.25;8.25;;;;;;;;4984904;28;10606;-75
2022/01/04 09:48:16;;;;;;;;;11.25;11.25;;;;;;;;4986055;28;10771;-75
2022/01/04 09:50:45;;;;;;;;;8.50;8.50;;;;;;;;4988332;28;10693;-75
2022/01/04 09:53:19;;;;;;;;;14.50;11.75;;;;;;;;4987512;28;10733;-75
2022/01/04 09:55:48;;;;;;;;;10.00;10.00;;;;;;;;4987938;28;10805;-74
2022/01/04 09:58:16;;;;;;;;;10.50;8.75;;;;;;;;4988706;28;10504;-74
2022/01/04 10:00:45;;;;;;;;;11.00;8.50;;;;;;;;4985679;28;10481;-74
2022/01/04 10:03:15;;;;;;;;;11.25;7.50;;;;;;;;4988851;28;10580;-74
2022/01/04 10:05:43;;;;;;;;;7.50;7.50;;;;;;;;4986797;28;10600;-75
2022/01/04 10:08:12;;;;;;;;;7.25;7.25;;;;;;;;4988362;28;10518;-74
2022/01/04 10:10:41;;;;;;;;;7.50;7.50;;;;;;;;4987615;28;10508;-74
2022/01/04 10:13:10;;;;;;;;;6.25;6.25;;;;;;;;4987746;28;10487;-74
2022/01/04 10:15:40;;;;;;;;;2.75;2.75;;;;;;;;4990662;28;10513;-74
2022/01/04 10:18:28;;;;;;;;;5.25;5.00;;;;;;;;4986214;28;10379;-75
2022/01/04 10:21:12;;;;;;;;;7.00;5.00;;;;;;;;4987759;28;10440;-75
2022/01/04 10:23:57;;;;;;;;;3.50;2.00;;;;;;;;4985816;28;10558;-75
2022/01/04 10:26:35;;;;;;;;;2.00;2.00;;;;;;;;4987083;28;10355;-75
2022/01/04 10:29:03;;;;;;;;;7.75;2.50;;;;;;;;4975814;28;10374;-75
2022/01/04 10:31:38;;;;;;;;;2.75;2.75;;;;;;;;4977860;28;10445;-75
2022/01/04 10:34:07;;;;;;;;;5.00;2.25;;;;;;;;4987736;28;10506;-75
2022/01/04 10:36:40;;;;;;;;;1.00;1.00;;;;;;;;4985961;28;10383;-75
2022/01/04 10:39:09;;;;;;;;;2.25;2.25;;;;;;;;4987415;28;10376;-75
2022/01/04 10:41:37;;;;;;;;;5.25;3.00;;;;;;;;4986236;28;10349;-75
2022/01/04 10:44:09;;;;;;;;;5.50;3.00;;;;;;;;4984166;28;10277;-75
2022/01/04 10:46:41;;;;;;;;;5.00;2.25;;;;;;;;4981493;28;10327;-75
2022/01/04 10:49:17;;;;;;;;;3.00;3.00;;;;;;;;4986609;28;10378;-75
2022/01/04 10:51:45;;;;;;;;;2.75;2.75;;;;;;;;4987868;28;10351;-75
2022/01/04 10:54:19;;;;;;;;;2.00;2.00;;;;;;;;4986259;28;10302;-75
2022/01/04 10:56:47;;;;;;;;;1.50;1.50;;;;;;;;4982609;28;10291;-75
2022/01/04 10:59:15;;;;;;;;;1.00;1.00;;;;;;;;4987606;28;10161;-75
2022/01/04 11:01:44;;;;;;;;;1.00;1.00;;;;;;;;4985141;28;10239;-75
2022/01/04 11:04:15;;;;;;;;;2.00;2.00;;;;;;;;4985922;28;10409;-75
2022/01/04 11:06:43;;;;;;;;;3.00;3.00;;;;;;;;4986037;28;10355;-75
2022/01/04 11:09:11;;;;;;;;;3.75;2.00;;;;;;;;4991303;28;11106;-75
2022/01/04 11:11:39;;;;;;;;;1.00;1.00;;;;;;;;4986290;28;10315;-76
2022/01/04 11:14:08;;;;;;;;;1.00;1.00;;;;;;;;4986513;28;10101;-75
2022/01/04 11:16:35;;;;;;;;;1.00;1.00;;;;;;;;4989166;28;10375;-75
2022/01/04 11:19:03;;;;;;;;;0.75;0.75;;;;;;;;4985972;28;10297;-75
2022/01/04 11:21:35;;;;;;;;;0.00;0.00;;;;;;;;4986885;28;10894;-75
2022/01/04 11:24:04;;;;;;;;;0.00;0.00;;;;;;;;4985580;28;10888;-75
2022/01/04 11:26:32;;;;;;;;;2.00;1.00;;;;;;;;4985399;28;10247;-75
2022/01/04 11:29:00;;;;;;;;;2.00;0.75;;;;;;;;4985689;28;10502;-75
2022/01/04 11:31:35;;;;;;;;;1.00;1.00;;;;;;;;4975962;28;10169;-75
2022/01/04 11:34:11;;;;;;;;;1.00;1.00;;;;;;;;4986593;28;10119;-75
2022/01/04 11:36:41;;;;;;;;;1.25;1.25;;;;;;;;4984776;28;11062;-75
2022/01/04 11:39:32;;;;;;;;;1.00;1.00;;;;;;;;4985441;28;10305;-74
2022/01/04 11:42:01;;;;;;;;;2.00;2.00;;;;;;;;4973777;28;10396;-77
2022/01/04 11:44:31;;;;;;;;;2.00;2.00;;;;;;;;4984882;28;10226;-77
2022/01/04 11:47:18;;;;;;;;;4.50;2.00;;;;;;;;4981204;28;10197;-78
2022/01/04 11:50:04;;;;;;;;;2.00;2.00;;;;;;;;4979578;28;10442;-76
2022/01/04 11:52:40;;;;;;;;;0.50;0.50;;;;;;;;4984983;28;10477;-77
2022/01/04 11:55:21;;;;;;;;;1.00;1.00;;;;;;;;4983337;28;10311;-76
2022/01/04 11:57:49;;;;;;;;;2.00;2.00;;;;;;;;4976113;28;10369;-76
2022/01/04 12:00:25;;;;;;;;;5.25;3.00;;;;;;;;4989055;28;10443;-78
2022/01/04 12:03:04;;;;;;;;;2.00;2.00;;;;;;;;4984079;28;10266;-76
2022/01/04 12:05:32;;;;;;;;;5.25;4.00;;;;;;;;4985981;28;10353;-75
2022/01/04 12:08:03;;;;;;;;;5.00;5.00;;;;;;;;4986237;28;10441;-76
2022/01/04 12:10:41;;;;;;;;;4.00;4.00;;;;;;;;4986135;28;10361;-76
2022/01/04 12:13:11;;;;;;;;;4.50;4.50;;;;;;;;4984392;28;10438;-74
2022/01/04 12:16:04;;;;;;;;;5.25;5.25;;;;;;;;4983406;28;10320;-74
2022/01/04 12:19:03;;;;;;;;;6.00;6.00;;;;;;;;4990935;28;10419;-75
2022/01/04 12:21:40;;;;;;;;;5.75;5.00;;;;;;;;4933596;28;10477;-73
2022/01/04 12:24:10;;;;;;;;;5.00;5.00;;;;;;;;4977979;28;11287;-74
2022/01/04 12:26:38;;;;;;;;;5.00;5.00;;;;;;;;4985443;28;10286;-74
2022/01/04 12:29:31;;;;;;;;;3.50;3.50;;;;;;;;4985301;28;10394;-74
2022/01/04 12:32:03;;;;;;;;;5.00;5.00;;;;;;;;4984148;28;11007;-72
2022/01/04 12:34:41;;;;;;;;;5.25;5.25;;;;;;;;4993415;28;10462;-76
2022/01/04 12:37:15;;;;;;;;;3.50;3.50;;;;;;;;4977461;28;10322;-75
2022/01/04 12:39:44;;;;;;;;;5.00;2.75;;;;;;;;4983807;28;10155;-76
2022/01/04 12:42:15;;;;;;;;;3.00;3.00;;;;;;;;4984488;28;10143;-73
2022/01/04 12:44:43;;;;;;;;;2.00;2.00;;;;;;;;4985034;28;10178;-73
2022/01/04 12:47:11;;;;;;;;;2.00;2.00;;;;;;;;4981315;28;10058;-74
2022/01/04 12:49:48;;;;;;;;;6.00;4.75;;;;;;;;4985713;28;9960;-75
2022/01/04 12:52:27;;;;;;;;;5.00;2.00;;;;;;;;4982137;28;10251;-74
2022/01/04 12:54:56;;;;;;;;;3.00;3.00;;;;;;;;4980523;28;9973;-74
2022/01/04 12:57:24;;;;;;;;;1.00;1.00;;;;;;;;4983944;28;10532;-74
2022/01/04 12:59:54;;;;;;;;;2.75;2.75;;;;;;;;4985487;28;10043;-73
2022/01/04 13:02:24;;;;;;;;;2.00;2.00;;;;;;;;4981010;28;10002;-74
2022/01/04 13:04:54;;;;;;;;;1.50;1.50;;;;;;;;4984194;28;10196;-74
2022/01/04 13:07:24;;;;;;;;;1.00;1.00;;;;;;;;4986016;28;10136;-74
2022/01/04 13:10:09;;;;;;;;;4.50;4.50;;;;;;;;4981921;28;9971;-74
2022/01/04 13:12:39;;;;;;;;;2.00;2.00;;;;;;;;4982664;28;10055;-74
2022/01/04 13:15:08;;;;;;;;;2.75;2.75;;;;;;;;4988933;28;9837;-73
2022/01/04 13:17:37;;;;;;;;;2.25;1.50;;;;;;;;4981618;28;9966;-73
2022/01/04 13:20:06;;;;;;;;;2.75;2.75;;;;;;;;4984737;28;10015;-73
2022/01/04 13:22:36;;;;;;;;;3.00;2.00;;;;;;;;4983639;28;9902;-72
2022/01/04 13:25:07;;;;;;;;;2.75;2.00;;;;;;;;4990220;28;9950;-73
2022/01/04 13:27:41;;;;;;;;;3.50;3.50;;;;;;;;4983519;28;9875;-72
2022/01/04 13:30:14;;;;;;;;;2.00;2.00;;;;;;;;4982959;28;10740;-73
2022/01/04 13:32:43;;;;;;;;;3.75;2.00;;;;;;;;4977596;28;10038;-73
2022/01/04 13:35:16;;;;;;;;;1.50;1.50;;;;;;;;4984356;28;9815;-73
2022/01/04 13:37:46;;;;;;;;;1.75;1.75;;;;;;;;4983275;28;9788;-73
2022/01/04 13:40:14;;;;;;;;;1.50;1.50;;;;;;;;4983549;28;9820;-73
2022/01/04 13:42:44;;;;;;;;;1.75;1.50;;;;;;;;4987578;28;9706;-73
2022/01/04 13:45:18;;;;;;;;;2.00;1.00;;;;;;;;4982722;28;9676;-73
2022/01/04 13:47:48;;;;;;;;;2.00;0.25;;;;;;;;4980060;28;9799;-74
2022/01/04 13:50:21;;;;;;;;;1.75;1.75;;;;;;;;4980321;28;9785;-74
2022/01/04 13:53:13;;;;;;;;;3.00;1.00;;;;;;;;4979390;28;9799;-74
2022/01/04 13:55:57;;;;;;;;;2.25;0.00;;;;;;;;4983263;28;9721;-74
2022/01/04 13:58:52;;;;;;;;;1.00;1.00;;;;;;;;4984157;28;9643;-73
2022/01/04 14:01:26;;;;;;;;;2.00;2.00;;;;;;;;4972810;28;9774;-74
2022/01/04 14:03:55;;;;;;;;;0.00;0.00;;;;;;;;4979819;28;9873;-74
2022/01/04 14:06:37;;;;;;;;;3.00;1.75;;;;;;;;4982280;28;9646;-74
2022/01/04 14:09:07;;;;;;;;;1.00;1.00;;;;;;;;4984707;28;9979;-74
2022/01/04 14:11:39;;;;;;;;;1.00;1.00;;;;;;;;4983214;28;9787;-74
2022/01/04 14:14:13;;;;;;;;;1.00;1.00;;;;;;;;4984326;28;10393;-74
2022/01/04 14:16:45;;;;;;;;;1.00;1.00;;;;;;;;4981340;28;9805;-73
2022/01/04 14:19:13;;;;;;;;;1.00;1.00;;;;;;;;4983989;28;10568;-72
2022/01/04 14:21:42;;;;;;;;;7.00;2.50;;;;;;;;4987970;28;9783;-73
2022/01/04 14:24:35;;;;;;;;;1.00;1.00;;;;;;;;4986812;28;9951;-74
2022/01/04 14:27:04;;;;;;;;;1.00;1.00;;;;;;;;4985361;28;9809;-73
2022/01/04 14:29:34;;;;;;;;;0.75;0.75;;;;;;;;4983385;28;9646;-74
2022/01/04 14:32:04;;;;;;;;;0.50;0.50;;;;;;;;4985022;28;9595;-74
2022/01/04 14:34:31;;;;;;;;;2.00;0.75;;;;;;;;4987585;28;9797;-74
2022/01/04 14:36:59;;;;;;;;;0.75;0.75;;;;;;;;4965694;28;9780;-73
2022/01/04 14:39:28;;;;;;;;;1.75;0.00;;;;;;;;4983001;28;9797;-73
2022/01/04 14:41:55;;;;;;;;;1.00;1.00;;;;;;;;4983513;28;9775;-72
2022/01/04 14:44:23;;;;;;;;;4.00;1.00;;;;;;;;4986874;28;11169;-71
2022/01/04 14:46:52;;;;;;;;;1.25;1.25;;;;;;;;4984239;28;9893;-71
2022/01/04 14:49:19;;;;;;;;;1.00;1.00;;;;;;;;4988256;28;9728;-72
2022/01/04 14:51:47;;;;;;;;;0.75;0.75;;;;;;;;4986576;28;9715;-73
2022/01/04 14:54:14;;;;;;;;;1.00;1.00;;;;;;;;4986170;28;9754;-72
2022/01/04 14:56:41;;;;;;;;;3.50;1.00;;;;;;;;4986250;28;9871;-71
2022/01/04 14:59:09;;;;;;;;;2.75;2.50;;;;;;;;4986429;28;9793;-73
2022/01/04 15:01:38;;;;;;;;;1.00;1.00;;;;;;;;4985737;28;9918;-72
2022/01/04 15:04:08;;;;;;;;;1.00;1.00;;;;;;;;4986083;28;9978;-71
2022/01/04 15:06:35;;;;;;;;;2.00;2.00;;;;;;;;4987007;28;9968;-72
2022/01/04 15:09:03;;;;;;;;;1.00;1.00;;;;;;;;4987002;28;9885;-71
2022/01/04 15:11:31;;;;;;;;;1.00;1.00;;;;;;;;4985578;28;9916;-72
2022/01/04 15:13:58;;;;;;;;;2.00;2.00;;;;;;;;4983170;28;9961;-72